Time;durP1;ratioP1;P1;durP2;ratioP2;P2;SDS_P1;SDS_P2;PMS_P1;PMS_P2;Temp;Humidity;BMP_temperature;BMP_pressure;BME280_temperature;BME280_humidity;BME280_pressure;Samples;Min_cycle;Max_cycle;Signal;HPM_P1;HPM_P2
2023/10/20 00:02:14;;;;;;;6.22;5.72;;;14.60;26.80;;;;;;4967499;28;20403;-87
2023/10/20 00:04:40;;;;;;;6.22;5.63;;;14.60;22.40;;;;;;4973978;28;20880;-87
2023/10/20 00:07:05;;;;;;;7.13;6.32;;;14.50;18.00;;;;;;4974192;28;20388;-86
2023/10/20 00:09:31;;;;;;;8.50;6.23;;;14.40;30.50;;;;;;4976474;28;20395;-87
2023/10/20 00:11:58;;;;;;;6.90;6.17;;;14.30;43.60;;;;;;4982669;28;20418;-86
2023/10/20 00:14:25;;;;;;;7.63;6.05;;;14.40;52.40;;;;;;4972772;28;20403;-87
2023/10/20 00:16:51;;;;;;;6.57;5.82;;;14.40;53.80;;;;;;4974411;28;20412;-87
2023/10/20 00:19:18;;;;;;;6.45;5.75;;;14.40;53.30;;;;;;4973723;28;20407;-86
2023/10/20 00:21:45;;;;;;;7.10;6.50;;;14.30;51.70;;;;;;4972523;28;20463;-86
2023/10/20 00:24:12;;;;;;;7.40;6.70;;;14.30;55.20;;;;;;4972221;28;20483;-87
2023/10/20 00:26:38;;;;;;;6.07;5.57;;;14.30;55.90;;;;;;4972838;28;20411;-86
2023/10/20 00:29:03;;;;;;;6.80;6.20;;;14.40;56.00;;;;;;4972280;28;20392;-86
2023/10/20 00:31:30;;;;;;;6.50;6.00;;;14.20;54.80;;;;;;4971770;28;20411;-87
2023/10/20 00:33:58;;;;;;;7.47;6.68;;;14.20;58.30;;;;;;4972162;28;20407;-87
2023/10/20 00:36:24;;;;;;;7.10;6.40;;;14.20;61.50;;;;;;4972199;28;20848;-86
2023/10/20 00:38:49;;;;;;;6.60;6.10;;;14.30;65.20;;;;;;4971824;28;20467;-86
2023/10/20 00:41:15;;;;;;;6.80;6.20;;;14.20;65.60;;;;;;4971519;28;20410;-86
2023/10/20 00:43:40;;;;;;;6.63;6.10;;;14.10;64.40;;;;;;4971388;28;20422;-86
2023/10/20 00:46:08;;;;;;;7.00;6.30;;;14.20;65.40;;;;;;4972609;28;20392;-86
2023/10/20 00:48:37;;;;;;;7.05;6.35;;;14.00;65.00;;;;;;4970958;28;20951;-86
2023/10/20 00:51:07;;;;;;;6.03;5.43;;;14.00;65.70;;;;;;4970797;28;20392;-86
2023/10/20 00:53:34;;;;;;;6.40;5.80;;;14.20;66.40;;;;;;4970750;28;20497;-85
2023/10/20 00:56:02;;;;;;;7.30;6.25;;;14.20;66.90;;;;;;4971054;28;20404;-86
2023/10/20 00:58:29;;;;;;;7.20;5.90;;;14.10;66.10;;;;;;4971783;28;20488;-86
2023/10/20 01:00:54;;;;;;;6.20;5.60;;;13.90;66.30;;;;;;4971353;28;20384;-86
2023/10/20 01:03:21;;;;;;;6.68;5.88;;;14.10;66.20;;;;;;4974644;28;20987;-86
2023/10/20 01:05:47;;;;;;;8.25;5.68;;;14.10;67.60;;;;;;4974786;28;20396;-86
2023/10/20 01:08:13;;;;;;;6.93;5.95;;;14.20;67.30;;;;;;4974800;28;20773;-86
2023/10/20 01:10:39;;;;;;;6.40;5.20;;;14.20;68.30;;;;;;4975108;28;20396;-86
2023/10/20 01:13:05;;;;;;;6.40;5.80;;;14.20;68.40;;;;;;4995730;28;20467;-86
2023/10/20 01:15:31;;;;;;;6.63;6.03;;;14.20;68.50;;;;;;4974347;28;20444;-86
2023/10/20 01:17:56;;;;;;;5.70;5.20;;;14.20;68.50;;;;;;4974781;28;20440;-86
2023/10/20 01:20:23;;;;;;;5.67;5.17;;;14.20;68.70;;;;;;4974179;28;21017;-86
2023/10/20 01:22:48;;;;;;;5.70;5.20;;;14.00;67.80;;;;;;4975262;28;20507;-85
2023/10/20 01:25:14;;;;;;;5.72;5.22;;;13.90;68.30;;;;;;4974635;28;20396;-86
2023/10/20 01:27:40;;;;;;;7.72;5.68;;;14.40;69.00;;;;;;4974586;28;20908;-86
2023/10/20 01:30:06;;;;;;;6.23;5.63;;;14.00;68.20;;;;;;4973961;28;20388;-86
2023/10/20 01:32:32;;;;;;;7.80;6.00;;;14.00;67.90;;;;;;4975419;28;20399;-86
2023/10/20 01:34:57;;;;;;;7.07;5.40;;;14.00;67.30;;;;;;4974804;28;20828;-86
2023/10/20 01:37:23;;;;;;;5.80;5.30;;;14.00;67.40;;;;;;4975651;28;20495;-86
2023/10/20 01:39:48;;;;;;;6.03;5.53;;;13.90;67.60;;;;;;4973938;28;20465;-86
2023/10/20 01:42:14;;;;;;;6.70;5.80;;;14.00;67.40;;;;;;4974095;28;20400;-85
2023/10/20 01:44:40;;;;;;;6.13;5.53;;;14.00;66.50;;;;;;4964339;28;20477;-86
2023/10/20 01:47:06;;;;;;;5.40;4.60;;;14.00;66.40;;;;;;4956396;28;20425;-86
2023/10/20 01:49:31;;;;;;;5.90;5.30;;;14.00;67.10;;;;;;4961495;28;20471;-86
2023/10/20 01:51:57;;;;;;;6.10;5.50;;;14.10;66.80;;;;;;4974223;28;20404;-85
2023/10/20 01:54:24;;;;;;;5.57;4.85;;;14.00;67.30;;;;;;4975048;28;20780;-86
2023/10/20 01:56:50;;;;;;;5.10;4.57;;;14.00;67.50;;;;;;4975055;28;20408;-86
2023/10/20 01:59:15;;;;;;;5.10;4.60;;;14.00;67.50;;;;;;4985455;28;20404;-86
2023/10/20 02:01:41;;;;;;;6.50;5.43;;;13.90;67.70;;;;;;4993109;28;20376;-86
2023/10/20 02:04:07;;;;;;;4.50;4.10;;;14.00;66.80;;;;;;4993615;28;20424;-86
2023/10/20 02:06:33;;;;;;;5.27;3.80;;;14.00;67.90;;;;;;4982084;28;20824;-86
2023/10/20 02:08:59;;;;;;;4.63;4.18;;;13.90;68.20;;;;;;4978459;28;20412;-86
2023/10/20 02:11:25;;;;;;;6.50;4.37;;;14.00;68.00;;;;;;4981088;28;20389;-86
2023/10/20 02:13:50;;;;;;;4.30;3.83;;;14.00;67.90;;;;;;4980193;28;20388;-87
2023/10/20 02:16:16;;;;;;;4.23;3.37;;;14.00;67.90;;;;;;4979863;28;20470;-86
2023/10/20 02:18:41;;;;;;;5.00;3.75;;;14.00;67.90;;;;;;4981212;28;20447;-85
2023/10/20 02:21:09;;;;;;;4.07;3.35;;;13.90;68.80;;;;;;4979689;28;20432;-87
2023/10/20 02:23:36;;;;;;;3.20;2.90;;;14.00;68.40;;;;;;4978253;28;20392;-86
2023/10/20 02:26:06;;;;;;;3.97;3.67;;;14.00;68.50;;;;;;4979410;28;20465;-86
2023/10/20 02:28:33;;;;;;;3.75;3.05;;;14.10;68.70;;;;;;4978855;28;20473;-86
2023/10/20 02:31:00;;;;;;;3.60;3.30;;;14.00;68.10;;;;;;4985676;28;20396;-86
2023/10/20 02:33:26;;;;;;;6.60;3.40;;;14.00;69.20;;;;;;4982052;28;20411;-86
2023/10/20 02:35:52;;;;;;;3.50;3.20;;;14.00;68.20;;;;;;4975842;28;20408;-86
2023/10/20 02:38:21;;;;;;;4.30;3.00;;;14.00;68.80;;;;;;4976831;28;20907;-86
2023/10/20 02:40:51;;;;;;;2.92;2.72;;;14.00;68.50;;;;;;4992153;28;20415;-87
2023/10/20 02:43:17;;;;;;;3.90;2.70;;;14.10;68.90;;;;;;4985474;28;20454;-87
2023/10/20 02:45:53;;;;;;;3.63;2.55;;;14.10;69.10;;;;;;4966374;28;20397;-86
2023/10/20 02:48:19;;;;;;;2.80;2.10;;;14.00;68.70;;;;;;4974521;28;20419;-86
2023/10/20 02:50:45;;;;;;;2.70;2.10;;;14.10;69.00;;;;;;4973725;28;20420;-86
2023/10/20 02:53:11;;;;;;;2.30;2.07;;;14.10;68.30;;;;;;4980972;28;20377;-86
2023/10/20 02:55:39;;;;;;;2.30;1.90;;;14.10;64.70;;;;;;4988036;28;20455;-86
2023/10/20 02:58:05;;;;;;;2.65;2.38;;;14.10;63.00;;;;;;4974191;28;20490;-86
2023/10/20 03:00:30;;;;;;;1.98;1.70;;;14.20;56.50;;;;;;4973642;28;20400;-86
2023/10/20 03:02:56;;;;;;;4.17;1.70;;;14.20;49.50;;;;;;4974399;28;20507;-87
2023/10/20 03:05:22;;;;;;;1.53;1.43;;;14.20;50.60;;;;;;4973639;28;20402;-87
2023/10/20 03:07:47;;;;;;;1.83;1.53;;;14.30;42.00;;;;;;4974819;28;20907;-86
2023/10/20 03:10:13;;;;;;;1.77;1.30;;;14.30;34.80;;;;;;4978563;28;20411;-85
2023/10/20 03:12:39;;;;;;;1.20;1.10;;;14.20;28.10;;;;;;4997957;28;20393;-86
2023/10/20 03:15:07;;;;;;;2.30;1.50;;;14.40;30.20;;;;;;4998417;28;20413;-86
2023/10/20 03:17:33;;;;;;;2.70;1.17;;;14.40;22.80;;;;;;4989453;28;20505;-86
2023/10/20 03:19:58;;;;;;;2.10;1.20;;;14.40;24.60;;;;;;4977040;28;20392;-86
2023/10/20 03:22:24;;;;;;;2.67;1.30;;;14.40;33.00;;;;;;4974301;28;20808;-87
2023/10/20 03:24:49;;;;;;;2.30;1.10;;;14.40;19.70;;;;;;4974202;28;20869;-86
2023/10/20 03:27:15;;;;;;;1.30;1.10;;;14.50;20.10;;;;;;4973742;28;20492;-86
2023/10/20 03:29:40;;;;;;;0.80;0.80;;;14.30;9.30;;;;;;4973479;28;20487;-86
2023/10/20 03:32:06;;;;;;;1.30;1.00;;;14.50;5.80;;;;;;4972436;28;20400;-87
2023/10/20 03:34:32;;;;;;;2.97;1.10;;;14.40;10.50;;;;;;4981470;28;20406;-86
2023/10/20 03:36:58;;;;;;;1.08;0.93;;;14.50;1.00;;;;;;4972611;28;20452;-86
2023/10/20 03:39:24;;;;;;;1.88;1.10;;;14.50;3.00;;;;;;4971487;28;20384;-86
2023/10/20 03:41:50;;;;;;;1.90;0.95;;;14.30;1.00;;;;;;4987816;28;20404;-87
2023/10/20 03:44:16;;;;;;;2.25;1.08;;;14.60;1.00;;;;;;4978588;28;20405;-88
2023/10/20 03:46:56;;;;;;;1.23;1.00;;;14.60;1.00;;;;;;4993657;28;20760;-87
2023/10/20 03:49:22;;;;;;;1.70;1.10;;;14.50;1.00;;;;;;4984007;28;20393;-86
2023/10/20 03:51:49;;;;;;;1.70;1.00;;;14.50;1.00;;;;;;4976868;28;20775;-86
2023/10/20 03:54:16;;;;;;;1.15;1.05;;;14.60;1.00;;;;;;4984963;28;20863;-86
2023/10/20 03:56:42;;;;;;;1.70;0.90;;;14.90;1.00;;;;;;4972438;28;20477;-86
2023/10/20 03:59:09;;;;;;;0.93;0.90;;;14.60;1.00;;;;;;4972651;28;20403;-87
2023/10/20 04:01:34;;;;;;;1.45;1.35;;;14.50;1.00;;;;;;4972200;28;20900;-86
2023/10/20 04:04:00;;;;;;;2.47;1.50;;;14.30;1.00;;;;;;4976672;28;20400;-86
2023/10/20 04:06:26;;;;;;;1.80;1.70;;;14.50;1.00;;;;;;4974425;28;20391;-86
2023/10/20 04:08:51;;;;;;;1.70;1.60;;;14.40;1.00;;;;;;4972708;28;20407;-86
2023/10/20 04:11:17;;;;;;;2.53;1.80;;;13.30;7.20;;;;;;4973545;28;20502;-86
2023/10/20 04:13:44;;;;;;;2.80;1.52;;;14.60;13.50;;;;;;4973701;28;20392;-87
2023/10/20 04:16:13;;;;;;;2.57;1.60;;;14.10;24.60;;;;;;4973763;28;21036;-87
2023/10/20 04:18:40;;;;;;;1.70;1.60;;;14.40;29.60;;;;;;4975049;28;20430;-86
2023/10/20 04:21:06;;;;;;;1.38;1.27;;;14.40;40.70;;;;;;4973542;28;20400;-86
2023/10/20 04:23:31;;;;;;;1.60;1.50;;;14.10;24.60;;;;;;4972342;28;20447;-87
2023/10/20 04:25:58;;;;;;;1.88;1.48;;;14.20;17.60;;;;;;4972584;28;20392;-86
2023/10/20 04:28:42;;;;;;;1.70;1.45;;;15.70;20.50;;;;;;4973005;28;20388;-86
2023/10/20 04:58:24;;;;;;;1.50;1.30;;;15.00;1.00;;;;;;4974262;28;20439;-86
2023/10/20 05:01:03;;;;;;;1.38;1.27;;;15.00;1.00;;;;;;4971841;28;20401;-86
2023/10/20 05:03:45;;;;;;;1.10;1.00;;;15.00;1.00;;;;;;4976021;28;20920;-87
2023/10/20 05:06:24;;;;;;;1.60;1.10;;;14.90;1.00;;;;;;4953150;28;20408;-87
2023/10/20 05:08:50;;;;;;;1.30;1.00;;;14.80;5.70;;;;;;4963137;28;20403;-87
2023/10/20 05:11:16;;;;;;;2.42;1.17;;;15.00;28.40;;;;;;4974134;28;20412;-87
2023/10/20 05:13:42;;;;;;;2.15;1.40;;;14.90;1.00;;;;;;4971588;28;20917;-87
2023/10/20 05:16:10;;;;;;;2.90;1.40;;;14.40;1.00;;;;;;4972049;28;20420;-88
2023/10/20 05:18:37;;;;;;;1.85;1.50;;;15.60;22.50;;;;;;4972401;28;20455;-88
2023/10/20 05:21:12;;;;;;;2.03;1.80;;;14.70;21.00;;;;;;4974979;28;20384;-88
2023/10/20 05:23:38;;;;;;;2.70;2.20;;;14.90;26.90;;;;;;4973930;28;20442;-87
2023/10/20 05:26:03;;;;;;;2.90;2.70;;;14.80;55.30;;;;;;4972849;28;20825;-87
2023/10/20 05:28:30;;;;;;;2.10;1.90;;;14.60;35.90;;;;;;4971037;28;20436;-87
2023/10/20 05:30:57;;;;;;;4.10;2.63;;;14.40;17.10;;;;;;4972207;28;20400;-85
2023/10/20 05:33:24;;;;;;;3.05;2.85;;;14.40;22.90;;;;;;4973466;28;20439;-87
2023/10/20 05:35:50;;;;;;;2.72;2.53;;;14.20;45.00;;;;;;4977736;28;20403;-84
2023/10/20 05:38:16;;;;;;;3.88;3.08;;;14.40;51.30;;;;;;4970897;28;20446;-85
2023/10/20 05:40:41;;;;;;;3.90;3.60;;;14.50;76.40;;;;;;4971778;28;20434;-84
2023/10/20 05:43:07;;;;;;;5.03;4.63;;;14.60;69.10;;;;;;4974686;28;20400;-84
2023/10/20 05:45:37;;;;;;;6.43;5.90;;;14.50;47.50;;;;;;4972488;28;20932;-84
2023/10/20 05:48:05;;;;;;;6.70;6.20;;;14.40;28.80;;;;;;4974257;28;20408;-85
2023/10/20 05:50:33;;;;;;;6.93;6.32;;;14.40;27.30;;;;;;4976364;28;20451;-84
2023/10/20 05:52:59;;;;;;;7.93;6.30;;;14.40;37.80;;;;;;4975351;28;20412;-84
2023/10/20 05:55:25;;;;;;;7.13;6.27;;;14.30;52.10;;;;;;4975906;28;20867;-85
2023/10/20 05:57:51;;;;;;;7.90;7.20;;;14.20;30.00;;;;;;4977988;28;20411;-85
2023/10/20 06:00:16;;;;;;;7.03;6.43;;;14.30;51.90;;;;;;4975982;28;20412;-85
2023/10/20 06:02:46;;;;;;;8.10;7.10;;;14.30;65.30;;;;;;4974578;28;20458;-84
2023/10/20 06:05:11;;;;;;;8.60;7.80;;;14.30;98.10;;;;;;4976593;28;20754;-85
2023/10/20 06:07:37;;;;;;;8.40;7.60;;;14.30;95.30;;;;;;4974003;28;20440;-85
2023/10/20 06:10:03;;;;;;;9.35;8.45;;;14.20;90.20;;;;;;4974344;28;20439;-84
2023/10/20 06:12:29;;;;;;;10.50;9.40;;;14.30;99.90;;;;;;4975565;28;20881;-85
2023/10/20 06:14:55;;;;;;;11.00;10.10;;;14.20;99.90;;;;;;4976884;28;20399;-84
2023/10/20 06:17:21;;;;;;;12.50;11.40;;;14.40;99.90;;;;;;4975845;28;20411;-83
2023/10/20 06:19:46;;;;;;;12.20;11.00;;;14.20;99.90;;;;;;4976137;28;20427;-85
2023/10/20 06:22:12;;;;;;;14.00;12.70;;;14.20;99.90;;;;;;4973986;28;20454;-84
2023/10/20 06:24:38;;;;;;;14.53;13.10;;;14.20;84.70;;;;;;4973744;28;20404;-85
2023/10/20 06:27:04;;;;;;;13.67;12.37;;;14.20;66.10;;;;;;4974000;28;20385;-86
2023/10/20 06:32:10;;;;;;;13.02;11.73;;;14.20;99.90;;;;;;4975847;28;20803;-84
2023/10/20 06:34:40;;;;;;;11.90;10.80;;;14.20;99.90;;;;;;4973996;28;20784;-84
2023/10/20 06:37:09;;;;;;;13.80;12.40;;;13.80;99.90;;;;;;4975212;28;20776;-84
2023/10/20 06:39:38;;;;;;;12.02;10.70;;;14.10;99.90;;;;;;4974844;28;20967;-83
2023/10/20 06:42:06;;;;;;;11.65;10.55;;;14.20;99.90;;;;;;4973937;28;20400;-84
2023/10/20 06:44:34;;;;;;;12.07;10.85;;;14.10;99.90;;;;;;4974382;28;20408;-85
2023/10/20 06:46:59;;;;;;;13.95;12.45;;;14.10;99.90;;;;;;4973265;28;20492;-85
2023/10/20 06:49:25;;;;;;;14.50;12.77;;;14.10;99.90;;;;;;4987679;28;20408;-87
2023/10/20 06:51:51;;;;;;;14.50;12.97;;;14.00;99.90;;;;;;4974074;28;20406;-84
2023/10/20 06:54:17;;;;;;;16.60;14.30;;;13.80;99.90;;;;;;4974279;28;20400;-84
2023/10/20 06:56:43;;;;;;;17.97;15.10;;;13.90;99.90;;;;;;4984594;28;20423;-84
2023/10/20 06:59:13;;;;;;;18.70;14.95;;;14.00;99.90;;;;;;4988570;28;20397;-84
2023/10/20 07:01:40;;;;;;;16.30;14.60;;;13.90;99.90;;;;;;4987821;28;20384;-84
2023/10/20 07:04:08;;;;;;;17.10;15.30;;;13.90;99.90;;;;;;4998516;28;20416;-85
2023/10/20 07:06:34;;;;;;;18.73;16.73;;;13.90;99.90;;;;;;5000524;28;20420;-84
2023/10/20 07:09:00;;;;;;;17.83;15.93;;;13.50;99.90;;;;;;5004937;28;20470;-84
2023/10/20 07:11:26;;;;;;;17.80;14.90;;;13.90;99.90;;;;;;4992882;28;20476;-85
2023/10/20 07:13:52;;;;;;;16.23;14.23;;;13.90;99.90;;;;;;4981283;28;20448;-85
2023/10/20 07:16:17;;;;;;;15.10;13.60;;;13.20;99.90;;;;;;4981237;28;20845;-85
2023/10/20 07:18:43;;;;;;;13.68;12.25;;;14.00;99.90;;;;;;4975076;28;20499;-84
2023/10/20 07:21:08;;;;;;;12.77;11.13;;;13.70;99.90;;;;;;4974259;28;20440;-85
2023/10/20 07:23:34;;;;;;;11.70;10.50;;;14.00;99.90;;;;;;4974576;28;20912;-86
2023/10/20 07:26:00;;;;;;;12.35;10.55;;;14.30;99.90;;;;;;4974359;28;20435;-86
2023/10/20 07:28:26;;;;;;;10.57;9.47;;;14.10;99.90;;;;;;4973049;28;20404;-86
2023/10/20 07:30:53;;;;;;;11.13;9.60;;;14.20;99.90;;;;;;4974519;28;20407;-86
2023/10/20 07:33:19;;;;;;;9.07;8.18;;;14.10;99.90;;;;;;4974683;28;20404;-85
2023/10/20 07:35:45;;;;;;;7.30;6.60;;;14.10;99.90;;;;;;4974596;28;20446;-85
2023/10/20 07:38:12;;;;;;;7.70;7.00;;;14.00;99.90;;;;;;4974694;28;20963;-82
2023/10/20 07:40:38;;;;;;;6.45;5.85;;;14.30;99.90;;;;;;4975902;28;20889;-86
2023/10/20 07:43:06;;;;;;;6.90;6.20;;;14.40;99.90;;;;;;4973531;28;20408;-85
2023/10/20 07:45:46;;;;;;;6.70;6.10;;;14.40;99.90;;;;;;4974374;28;20441;-85
2023/10/20 07:48:11;;;;;;;7.10;6.40;;;14.30;99.90;;;;;;4997820;28;20415;-86
2023/10/20 07:50:37;;;;;;;7.25;6.55;;;13.70;95.80;;;;;;4986205;28;20406;-86
2023/10/20 07:53:03;;;;;;;7.00;6.27;;;14.30;93.80;;;;;;4980796;28;20416;-86
2023/10/20 07:55:29;;;;;;;6.43;5.82;;;14.70;96.70;;;;;;4975242;28;20915;-86
2023/10/20 07:57:55;;;;;;;5.20;4.70;;;;;;;;;;4972803;28;20412;-85
2023/10/20 08:00:21;;;;;;;4.55;4.15;;;14.60;99.90;;;;;;4973125;28;20392;-85
2023/10/20 08:02:48;;;;;;;3.80;3.50;;;14.80;99.90;;;;;;4973874;28;20388;-85
2023/10/20 08:05:13;;;;;;;4.80;4.30;;;17.20;99.90;;;;;;4974479;28;20430;-85
2023/10/20 08:07:40;;;;;;;4.57;4.17;;;14.80;99.90;;;;;;4972965;28;20408;-85
2023/10/20 08:10:07;;;;;;;4.50;4.10;;;13.90;99.90;;;;;;4972151;28;20400;-85
2023/10/20 08:12:33;;;;;;;4.65;4.25;;;14.90;99.90;;;;;;4971957;28;20398;-85
2023/10/20 08:14:58;;;;;;;4.03;3.72;;;14.90;99.90;;;;;;4973546;28;20947;-85
2023/10/20 08:17:24;;;;;;;3.90;3.60;;;14.30;99.90;;;;;;4973652;28;20445;-85
2023/10/20 08:19:49;;;;;;;2.80;2.60;;;15.10;99.90;;;;;;4972490;28;20796;-87
2023/10/20 08:22:15;;;;;;;1.80;1.70;;;;;;;;;;4972441;28;20496;-86
2023/10/20 08:24:41;;;;;;;1.40;1.27;;;15.80;99.90;;;;;;4972395;28;20487;-86
2023/10/20 08:27:07;;;;;;;1.30;1.20;;;16.30;99.90;;;;;;4973825;28;20399;-84
2023/10/20 08:29:33;;;;;;;1.60;1.50;;;16.40;99.90;;;;;;4972530;28;20476;-87
2023/10/20 08:31:58;;;;;;;0.90;0.90;;;16.00;99.90;;;;;;4973117;28;20416;-85
2023/10/20 08:34:24;;;;;;;0.80;0.73;;;16.30;99.90;;;;;;4978938;28;20407;-87
2023/10/20 08:36:50;;;;;;;2.20;0.80;;;;;;;;;;4990629;28;20408;-85
2023/10/20 08:39:24;;;;;;;0.80;0.80;;;;;;;;;;4991915;28;20400;-86
2023/10/20 08:41:50;;;;;;;1.10;0.70;;;16.70;99.90;;;;;;4983694;28;20595;-88
2023/10/20 08:44:17;;;;;;;0.60;0.60;;;16.30;99.90;;;;;;5007887;23;20430;-81
2023/10/20 08:46:52;;;;;;;0.68;0.68;;;16.10;99.90;;;;;;5002198;28;20442;-82
2023/10/20 08:49:19;;;;;;;1.00;0.70;;;15.90;99.90;;;;;;4997691;28;20414;-82
2023/10/20 08:51:47;;;;;;;0.60;0.57;;;16.10;99.90;;;;;;4996572;28;20397;-82
2023/10/20 08:54:13;;;;;;;0.90;0.50;;;16.00;99.90;;;;;;4978236;28;20898;-83
2023/10/20 08:56:40;;;;;;;1.10;0.90;;;15.50;99.90;;;;;;4978296;28;20500;-82
2023/10/20 08:59:06;;;;;;;0.90;0.80;;;16.00;99.90;;;;;;4977766;28;20391;-82
2023/10/20 09:01:32;;;;;;;0.80;0.80;;;15.40;99.90;;;;;;4995667;28;20400;-82
2023/10/20 09:04:00;;;;;;;0.80;0.73;;;15.10;99.90;;;;;;4994975;28;20409;-81
2023/10/20 09:06:26;;;;;;;0.60;0.50;;;15.70;99.90;;;;;;4978958;28;20415;-83
2023/10/20 09:08:52;;;;;;;1.70;0.80;;;15.30;99.90;;;;;;4995831;28;20399;-82
2023/10/20 09:11:18;;;;;;;0.90;0.90;;;15.90;99.90;;;;;;4994887;28;20429;-83
2023/10/20 09:13:47;;;;;;;0.70;0.60;;;15.10;99.90;;;;;;4996129;28;20427;-82
2023/10/20 09:16:14;;;;;;;0.60;0.60;;;15.30;99.90;;;;;;4978237;28;20422;-81
2023/10/20 09:18:48;;;;;;;0.70;0.70;;;15.30;99.90;;;;;;4995312;28;20759;-81
2023/10/20 09:21:15;;;;;;;0.80;0.70;;;15.30;99.90;;;;;;4995382;28;20414;-82
2023/10/20 09:24:02;;;;;;;1.30;0.60;;;15.20;99.90;;;;;;4981470;28;20395;-81
2023/10/20 09:26:32;;;;;;;0.80;0.50;;;15.50;99.90;;;;;;4981898;28;20403;-81
2023/10/20 09:28:58;;;;;;;0.73;0.60;;;16.60;99.90;;;;;;4998348;28;20399;-82
2023/10/20 09:31:25;;;;;;;0.70;0.63;;;15.00;99.90;;;;;;4981056;28;20406;-82
2023/10/20 09:33:51;;;;;;;0.90;0.70;;;15.00;99.90;;;;;;5000946;28;20390;-82
2023/10/20 09:36:18;;;;;;;0.90;0.75;;;15.80;99.90;;;;;;4980918;28;20497;-80
2023/10/20 09:38:46;;;;;;;1.00;0.60;;;15.70;99.90;;;;;;4998638;28;20421;-81
2023/10/20 09:41:15;;;;;;;0.75;0.60;;;15.40;99.90;;;;;;4999126;28;20444;-81
2023/10/20 09:43:47;;;;;;;1.30;0.70;;;15.10;99.90;;;;;;4997760;28;20398;-80
2023/10/20 09:46:22;;;;;;;0.95;0.70;;;16.10;99.90;;;;;;4997067;28;20378;-80
2023/10/20 09:48:51;;;;;;;0.90;0.80;;;15.50;99.90;;;;;;4997560;28;20890;-80
2023/10/20 09:51:20;;;;;;;1.08;0.98;;;17.30;99.90;;;;;;4997814;28;20394;-81
2023/10/20 09:53:46;;;;;;;1.50;1.00;;;15.30;99.90;;;;;;4998290;28;20430;-82
2023/10/20 09:56:13;;;;;;;2.60;0.80;;;15.50;99.90;;;;;;4980827;28;20406;-82
2023/10/20 09:58:41;;;;;;;0.70;0.70;;;15.20;99.90;;;;;;4981873;28;20386;-82
2023/10/20 10:01:07;;;;;;;1.08;0.73;;;15.20;99.90;;;;;;4998006;28;20438;-80
2023/10/20 10:03:40;;;;;;;1.40;0.60;;;15.70;99.90;;;;;;4979726;28;20418;-81
2023/10/20 10:06:16;;;;;;;0.70;0.70;;;15.30;99.90;;;;;;4996909;28;20406;-81
2023/10/20 10:08:45;;;;;;;1.13;0.70;;;15.50;99.90;;;;;;4998514;28;20379;-82
2023/10/20 10:11:26;;;;;;;0.60;0.45;;;15.50;99.90;;;;;;4997867;28;20382;-82
2023/10/20 10:13:57;;;;;;;0.70;0.50;;;15.60;99.90;;;;;;4997806;28;20389;-82
2023/10/20 10:16:23;;;;;;;1.70;0.70;;;15.70;99.90;;;;;;4997045;28;20414;-82
2023/10/20 10:18:49;;;;;;;0.73;0.73;;;15.30;99.90;;;;;;4997603;28;20765;-83
2023/10/20 10:21:37;;;;;;;1.00;0.40;;;15.20;99.90;;;;;;4997760;28;20386;-82
2023/10/20 10:24:15;;;;;;;0.80;0.47;;;14.80;99.90;;;;;;4980269;28;20395;-83
2023/10/20 10:26:51;;;;;;;0.60;0.40;;;16.20;99.90;;;;;;4997362;28;20417;-81
2023/10/20 10:29:17;;;;;;;0.43;0.30;;;15.30;99.90;;;;;;4996797;28;20465;-81
2023/10/20 10:31:43;;;;;;;1.10;0.30;;;15.20;99.90;;;;;;4996680;28;20442;-84
2023/10/20 10:34:10;;;;;;;1.40;0.40;;;15.10;99.90;;;;;;4978939;28;20405;-83
2023/10/20 10:36:44;;;;;;;0.50;0.30;;;16.40;99.90;;;;;;4979456;28;20505;-83
2023/10/20 10:39:21;;;;;;;0.60;0.40;;;16.60;99.90;;;;;;4997474;28;20382;-83
2023/10/20 10:41:47;;;;;;;1.10;0.40;;;16.20;99.90;;;;;;4996626;28;20379;-83
2023/10/20 10:44:13;;;;;;;0.60;0.40;;;15.40;99.90;;;;;;4996413;28;20410;-82
2023/10/20 10:46:38;;;;;;;0.50;0.30;;;15.80;99.90;;;;;;4997814;28;20482;-82
2023/10/20 10:49:09;;;;;;;0.60;0.50;;;15.70;99.90;;;;;;4997094;28;20391;-83
2023/10/20 10:51:43;;;;;;;0.63;0.40;;;15.50;99.90;;;;;;4997687;28;20460;-82
2023/10/20 10:54:09;;;;;;;1.40;0.30;;;15.70;99.90;;;;;;4996998;28;20917;-81
2023/10/20 10:56:34;;;;;;;0.60;0.40;;;15.50;99.90;;;;;;4997362;28;20419;-82
2023/10/20 10:59:00;;;;;;;0.50;0.40;;;15.70;99.90;;;;;;4979846;28;20409;-83
2023/10/20 11:01:26;;;;;;;0.40;0.30;;;15.50;99.90;;;;;;4979978;28;20383;-82
2023/10/20 11:03:52;;;;;;;0.40;0.30;;;15.30;99.90;;;;;;4997493;28;20434;-83
2023/10/20 11:06:18;;;;;;;0.65;0.40;;;15.60;99.90;;;;;;5000540;28;20453;-83
2023/10/20 11:08:44;;;;;;;0.50;0.40;;;16.30;99.90;;;;;;5014970;28;20390;-83
2023/10/20 11:11:10;;;;;;;0.60;0.30;;;15.40;99.90;;;;;;5004693;28;20402;-85
2023/10/20 11:13:36;;;;;;;0.90;0.30;;;15.70;99.90;;;;;;4996903;28;20418;-84
2023/10/20 11:16:03;;;;;;;0.47;0.30;;;15.80;99.90;;;;;;4997251;28;20402;-83
2023/10/20 11:18:29;;;;;;;0.60;0.30;;;15.80;99.90;;;;;;4991591;28;20406;-83
2023/10/20 11:20:55;;;;;;;0.60;0.30;;;15.70;99.90;;;;;;4997793;28;20752;-84
2023/10/20 11:23:28;;;;;;;0.57;0.30;;;16.00;99.90;;;;;;4996723;28;20391;-84
2023/10/20 11:25:53;;;;;;;0.50;0.40;;;15.30;99.90;;;;;;4977808;28;20465;-84
2023/10/20 11:28:19;;;;;;;0.50;0.30;;;17.80;99.90;;;;;;4996784;28;20387;-83
2023/10/20 11:30:45;;;;;;;1.20;0.40;;;16.00;99.90;;;;;;4996294;28;20736;-83
2023/10/20 11:33:11;;;;;;;1.30;0.22;;;15.40;99.90;;;;;;4996554;28;20395;-85
2023/10/20 11:35:37;;;;;;;0.50;0.30;;;15.40;99.90;;;;;;4996954;28;20891;-84
2023/10/20 11:38:03;;;;;;;0.70;0.30;;;15.00;99.90;;;;;;4996732;28;20414;-83
2023/10/20 11:40:29;;;;;;;0.45;0.30;;;15.50;99.90;;;;;;4995070;28;20482;-84
2023/10/20 11:42:55;;;;;;;0.40;0.20;;;14.70;99.90;;;;;;4979223;28;20387;-83
2023/10/20 11:45:21;;;;;;;0.65;0.30;;;15.00;99.90;;;;;;4973859;28;20414;-83
2023/10/20 11:47:47;;;;;;;0.40;0.30;;;15.50;99.90;;;;;;4975149;28;20487;-83
2023/10/20 11:50:13;;;;;;;0.60;0.30;;;15.60;99.90;;;;;;4993659;28;20398;-83
2023/10/20 11:52:40;;;;;;;1.10;0.30;;;15.80;99.90;;;;;;4974665;28;20398;-84
2023/10/20 11:55:06;;;;;;;0.50;0.40;;;15.10;99.90;;;;;;4990050;28;20778;-85
2023/10/20 11:57:32;;;;;;;0.40;0.30;;;15.00;99.90;;;;;;4995789;28;20418;-84
2023/10/20 11:59:58;;;;;;;0.50;0.40;;;14.90;99.90;;;;;;4993420;28;20929;-84
2023/10/20 12:02:24;;;;;;;1.10;0.30;;;15.20;99.90;;;;;;4980846;28;20390;-83
2023/10/20 12:04:49;;;;;;;0.57;0.30;;;15.70;99.90;;;;;;4995893;28;20809;-82
2023/10/20 12:07:15;;;;;;;0.80;0.40;;;15.80;99.90;;;;;;4996709;28;20391;-84
2023/10/20 12:09:40;;;;;;;0.40;0.20;;;15.20;99.90;;;;;;4995840;28;20403;-83
2023/10/20 12:12:06;;;;;;;0.50;0.33;;;15.40;99.90;;;;;;4995228;28;20386;-83
2023/10/20 12:14:32;;;;;;;1.00;0.20;;;15.50;99.90;;;;;;4985034;28;20405;-84
2023/10/20 12:16:58;;;;;;;0.40;0.30;;;15.30;99.90;;;;;;4976584;28;21867;-83
2023/10/20 12:19:23;;;;;;;0.50;0.30;;;15.10;99.90;;;;;;4994903;28;20398;-82
2023/10/20 12:21:49;;;;;;;0.50;0.32;;;15.30;99.90;;;;;;4993198;28;20449;-82
2023/10/20 12:24:16;;;;;;;0.50;0.30;;;15.80;99.90;;;;;;4994038;28;20402;-82
2023/10/20 12:26:42;;;;;;;0.40;0.30;;;14.80;99.90;;;;;;4993649;28;20409;-84
2023/10/20 12:29:08;;;;;;;0.43;0.22;;;15.90;99.90;;;;;;4994220;28;20474;-83
2023/10/20 12:31:33;;;;;;;0.40;0.20;;;15.50;99.90;;;;;;4995155;28;20397;-82
2023/10/20 12:33:59;;;;;;;1.95;0.40;;;15.50;99.90;;;;;;4994172;28;20414;-82
2023/10/20 12:36:28;;;;;;;0.40;0.20;;;16.00;99.90;;;;;;4993824;28;20787;-84
2023/10/20 12:38:55;;;;;;;0.50;0.30;;;18.10;99.90;;;;;;4976790;28;20763;-82
2023/10/20 12:41:21;;;;;;;0.40;0.30;;;15.90;99.90;;;;;;4994601;28;20387;-84
2023/10/20 12:43:47;;;;;;;0.60;0.30;;;16.10;99.90;;;;;;4994483;28;20478;-82
2023/10/20 12:46:13;;;;;;;0.70;0.40;;;15.90;99.90;;;;;;4995477;28;20819;-84
2023/10/20 12:48:40;;;;;;;0.60;0.30;;;16.90;99.90;;;;;;4994356;28;20422;-83
2023/10/20 12:51:12;;;;;;;0.60;0.40;;;16.50;99.90;;;;;;4977498;28;20416;-83
2023/10/20 12:53:38;;;;;;;0.50;0.40;;;16.30;99.90;;;;;;4994714;28;20425;-83
2023/10/20 12:56:05;;;;;;;0.90;0.50;;;16.10;99.90;;;;;;4995708;28;20430;-84
2023/10/20 12:58:31;;;;;;;0.88;0.60;;;16.40;99.90;;;;;;4998400;28;20426;-83
2023/10/20 13:00:57;;;;;;;1.20;0.40;;;18.70;99.90;;;;;;4982696;28;20425;-82
2023/10/20 13:03:23;;;;;;;0.85;0.50;;;16.20;99.90;;;;;;4980699;28;20433;-83
2023/10/20 13:05:48;;;;;;;0.70;0.60;;;15.80;99.90;;;;;;4998455;28;20422;-82
2023/10/20 13:08:14;;;;;;;0.90;0.40;;;15.60;99.90;;;;;;4998124;28;20464;-82
2023/10/20 13:10:49;;;;;;;1.00;0.50;;;15.60;99.90;;;;;;4982763;28;20390;-82
2023/10/20 13:13:19;;;;;;;0.60;0.40;;;16.00;99.90;;;;;;4998531;28;20401;-84
2023/10/20 13:15:45;;;;;;;0.90;0.40;;;16.10;99.90;;;;;;4998951;28;20410;-81
2023/10/20 13:18:15;;;;;;;1.20;0.50;;;17.50;99.90;;;;;;4979923;28;20425;-82